Time;durP1;ratioP1;P1;durP2;ratioP2;P2;SDS_P1;SDS_P2;PMS_P1;PMS_P2;Temp;Humidity;BMP_temperature;BMP_pressure;BME280_temperature;BME280_humidity;BME280_pressure;Samples;Min_cycle;Max_cycle;Signal;HPM_P1;HPM_P2
2023/05/10 00:01:48;;;;;;;0.63;0.63;;;12.70;99.90;;;;;;5017817;28;20128;-86
2023/05/10 00:04:13;;;;;;;0.22;0.22;;;12.70;99.90;;;;;;5032177;28;20045;-86
2023/05/10 00:06:39;;;;;;;1.08;0.55;;;12.60;99.90;;;;;;5034671;28;20048;-85
2023/05/10 00:09:05;;;;;;;0.63;0.63;;;12.90;99.90;;;;;;5029377;28;20314;-85
2023/05/10 00:11:30;;;;;;;0.55;0.50;;;12.40;99.90;;;;;;5041106;28;20056;-85
2023/05/10 00:13:56;;;;;;;1.38;0.30;;;12.70;99.90;;;;;;5050577;28;20514;-86
2023/05/10 00:16:21;;;;;;;0.43;0.43;;;12.30;99.90;;;;;;5048810;28;20049;-86
2023/05/10 00:18:47;;;;;;;0.15;0.15;;;12.30;99.90;;;;;;5029063;28;20050;-86
2023/05/10 00:21:13;;;;;;;0.55;0.22;;;12.20;99.90;;;;;;5037423;28;20049;-84
2023/05/10 00:23:38;;;;;;;0.32;0.30;;;13.50;99.90;;;;;;5050534;28;20056;-85
2023/05/10 00:26:04;;;;;;;0.32;0.32;;;13.60;99.90;;;;;;5050845;28;20045;-86
2023/05/10 00:28:30;;;;;;;0.00;0.00;;;12.20;99.90;;;;;;5040421;28;20045;-86
2023/05/10 00:30:55;;;;;;;1.83;1.00;;;12.20;99.90;;;;;;5047810;28;20201;-86
2023/05/10 00:33:21;;;;;;;1.75;0.52;;;12.40;99.90;;;;;;5046454;28;20045;-86
2023/05/10 00:35:46;;;;;;;0.73;0.30;;;12.20;99.90;;;;;;5032580;28;20180;-86
2023/05/10 00:38:12;;;;;;;1.20;0.60;;;12.20;99.90;;;;;;5047437;28;20588;-85
2023/05/10 00:40:38;;;;;;;0.30;0.30;;;13.50;99.90;;;;;;5049559;28;20041;-86
2023/05/10 00:43:04;;;;;;;0.63;0.20;;;13.20;99.90;;;;;;5043203;28;20052;-86
2023/05/10 00:45:32;;;;;;;0.35;0.35;;;12.20;99.90;;;;;;5030014;28;20049;-86
2023/05/10 00:48:00;;;;;;;0.20;0.20;;;12.20;99.90;;;;;;5042962;28;20048;-86
2023/05/10 00:50:26;;;;;;;0.30;0.28;;;13.20;99.90;;;;;;5047597;28;20056;-86
2023/05/10 00:52:52;;;;;;;0.25;0.25;;;12.20;99.90;;;;;;5050006;28;20065;-86
2023/05/10 00:55:19;;;;;;;0.65;0.63;;;12.30;99.90;;;;;;5049605;28;20052;-85
2023/05/10 00:57:45;;;;;;;0.75;0.55;;;12.20;99.90;;;;;;5027751;28;20045;-84
2023/05/10 01:00:12;;;;;;;0.52;0.52;;;12.20;99.90;;;;;;5035222;28;20123;-86
2023/05/10 01:02:38;;;;;;;0.10;0.10;;;12.20;99.90;;;;;;5031037;28;20053;-85
2023/05/10 01:05:05;;;;;;;0.90;0.75;;;12.20;99.90;;;;;;5029376;28;20488;-85
2023/05/10 01:07:30;;;;;;;0.10;0.10;;;12.20;99.90;;;;;;5038451;28;20080;-86
2023/05/10 01:09:57;;;;;;;0.30;0.30;;;13.00;99.90;;;;;;5048847;28;20100;-86
2023/05/10 01:12:23;;;;;;;0.90;0.70;;;12.30;99.90;;;;;;5028238;28;20045;-85
2023/05/10 01:14:49;;;;;;;0.43;0.43;;;12.20;99.90;;;;;;5028565;28;20041;-85
2023/05/10 01:17:16;;;;;;;0.35;0.28;;;12.30;99.90;;;;;;5040179;28;20055;-85
2023/05/10 01:19:41;;;;;;;0.15;0.15;;;12.30;99.90;;;;;;5049176;28;20060;-85
2023/05/10 01:22:32;;;;;;;0.50;0.50;;;12.30;99.90;;;;;;5048928;28;20450;-85
2023/05/10 01:25:19;;;;;;;0.45;0.20;;;12.30;99.90;;;;;;5050649;28;20499;-85
2023/05/10 01:28:02;;;;;;;0.15;0.15;;;12.30;99.90;;;;;;5048322;28;20049;-86
2023/05/10 01:30:52;;;;;;;0.90;0.68;;;12.30;99.90;;;;;;5049810;28;20187;-86
2023/05/10 01:33:34;;;;;;;0.10;0.10;;;12.20;99.90;;;;;;5049882;28;20057;-86
2023/05/10 01:36:26;;;;;;;1.23;1.08;;;12.30;99.90;;;;;;5048857;28;20457;-86
2023/05/10 01:39:12;;;;;;;0.10;0.10;;;12.30;99.90;;;;;;5008219;28;20053;-86
2023/05/10 01:42:05;;;;;;;1.30;0.85;;;12.20;99.90;;;;;;5028182;28;20053;-86
2023/05/10 01:44:56;;;;;;;0.40;0.30;;;12.20;99.90;;;;;;5029086;28;20407;-86
2023/05/10 01:47:32;;;;;;;0.47;0.47;;;12.30;99.90;;;;;;5030598;28;20582;-86
2023/05/10 01:50:02;;;;;;;0.70;0.45;;;12.30;99.90;;;;;;5028508;28;20113;-85
2023/05/10 01:52:36;;;;;;;0.93;0.82;;;13.00;99.90;;;;;;5026454;28;20056;-87
2023/05/10 01:55:06;;;;;;;0.40;0.40;;;12.20;99.90;;;;;;5028127;28;20056;-86
2023/05/10 01:57:40;;;;;;;0.47;0.35;;;12.20;99.90;;;;;;5034295;28;20068;-85
2023/05/10 02:00:08;;;;;;;2.05;0.88;;;12.20;99.90;;;;;;5047774;28;20103;-85
2023/05/10 02:02:37;;;;;;;2.67;1.73;;;12.20;99.90;;;;;;5047776;28;20041;-86
2023/05/10 02:05:06;;;;;;;0.70;0.70;;;12.10;99.90;;;;;;5048942;28;20048;-85
2023/05/10 02:07:35;;;;;;;1.55;0.75;;;12.20;99.90;;;;;;5053340;28;20052;-86
2023/05/10 02:10:05;;;;;;;0.55;0.43;;;12.10;99.90;;;;;;5052766;28;20491;-86
2023/05/10 02:12:53;;;;;;;0.20;0.20;;;12.00;99.90;;;;;;5053675;28;20087;-85
2023/05/10 02:15:25;;;;;;;0.05;0.05;;;13.00;99.90;;;;;;5059688;28;20047;-86
2023/05/10 02:17:54;;;;;;;1.30;1.05;;;11.90;99.90;;;;;;5059782;28;20052;-86
2023/05/10 02:20:21;;;;;;;1.92;1.20;;;11.90;99.90;;;;;;5048823;28;20067;-86
2023/05/10 02:22:50;;;;;;;0.52;0.52;;;12.00;99.90;;;;;;5049419;28;20089;-86
2023/05/10 02:25:17;;;;;;;0.22;0.22;;;11.90;99.90;;;;;;5048471;28;20069;-86
2023/05/10 02:27:44;;;;;;;0.25;0.20;;;12.00;99.90;;;;;;5052530;28;20036;-85
2023/05/10 02:30:11;;;;;;;0.93;0.63;;;11.90;99.90;;;;;;5073562;28;20037;-86
2023/05/10 02:32:38;;;;;;;0.13;0.10;;;11.90;99.90;;;;;;5072387;28;20037;-86
2023/05/10 02:35:05;;;;;;;0.52;0.43;;;11.90;99.90;;;;;;5063795;28;20422;-86
2023/05/10 02:37:32;;;;;;;1.40;0.45;;;11.90;99.90;;;;;;5035836;28;20128;-86
2023/05/10 02:39:59;;;;;;;0.82;0.45;;;12.90;99.90;;;;;;5029738;28;20084;-86
2023/05/10 02:42:27;;;;;;;0.28;0.28;;;12.60;99.90;;;;;;5030800;28;20088;-86
2023/05/10 02:45:16;;;;;;;0.00;0.00;;;11.90;99.90;;;;;;5031769;28;20077;-86
2023/05/10 02:47:43;;;;;;;0.50;0.50;;;11.90;99.90;;;;;;5037196;28;20065;-86
2023/05/10 02:50:09;;;;;;;2.10;1.08;;;11.90;99.90;;;;;;5053327;28;20372;-87
2023/05/10 02:52:47;;;;;;;12.52;0.45;;;11.90;99.90;;;;;;5053003;28;20083;-86
2023/05/10 02:55:16;;;;;;;0.20;0.20;;;11.90;99.90;;;;;;5052580;28;20087;-86
2023/05/10 02:58:02;;;;;;;2.53;1.08;;;12.80;99.90;;;;;;5046641;28;20097;-85
2023/05/10 03:00:28;;;;;;;0.32;0.32;;;11.90;99.90;;;;;;5033074;28;20061;-86
2023/05/10 03:02:54;;;;;;;2.78;0.88;;;11.90;99.90;;;;;;5037907;28;20071;-87
2023/05/10 03:05:20;;;;;;;0.40;0.40;;;11.90;99.90;;;;;;5054043;28;20118;-85
2023/05/10 03:07:46;;;;;;;0.52;0.52;;;11.90;99.90;;;;;;5055025;28;20487;-85
2023/05/10 03:10:12;;;;;;;0.88;0.70;;;11.90;99.90;;;;;;5057161;28;20041;-86
2023/05/10 03:12:37;;;;;;;0.40;0.38;;;11.90;99.90;;;;;;5053411;28;20055;-84
2023/05/10 03:15:18;;;;;;;2.47;1.05;;;12.80;99.90;;;;;;5047239;28;20484;-84
2023/05/10 03:17:56;;;;;;;0.22;0.22;;;12.00;99.90;;;;;;5037701;28;20139;-85
2023/05/10 03:20:29;;;;;;;0.38;0.38;;;11.90;99.90;;;;;;5050206;28;20053;-86
2023/05/10 03:23:25;;;;;;;1.40;0.90;;;11.90;99.90;;;;;;5052690;28;20044;-86
2023/05/10 03:25:51;;;;;;;2.05;0.88;;;12.00;99.90;;;;;;5051921;28;20083;-84
2023/05/10 03:28:18;;;;;;;2.42;1.60;;;12.40;99.90;;;;;;5042499;28;20053;-85
2023/05/10 03:30:45;;;;;;;1.38;0.75;;;11.90;99.90;;;;;;5032586;28;20049;-84
2023/05/10 03:33:12;;;;;;;2.00;1.15;;;12.40;99.90;;;;;;5028820;28;20049;-85
2023/05/10 03:35:38;;;;;;;1.83;1.58;;;11.90;99.90;;;;;;5030756;28;20049;-84
2023/05/10 03:38:04;;;;;;;2.00;1.33;;;11.90;99.90;;;;;;5041928;28;20180;-85
2023/05/10 03:40:31;;;;;;;1.35;1.23;;;11.90;99.90;;;;;;5030158;28;20475;-85
2023/05/10 03:43:01;;;;;;;1.10;0.80;;;11.90;99.90;;;;;;5031758;28;20057;-85
2023/05/10 03:45:26;;;;;;;0.47;0.47;;;11.90;99.90;;;;;;5031531;28;20049;-84
2023/05/10 03:47:52;;;;;;;2.13;1.08;;;12.20;99.90;;;;;;5031778;28;20113;-85
2023/05/10 03:50:18;;;;;;;2.10;1.25;;;11.90;99.90;;;;;;5029301;28;20076;-85
2023/05/10 03:52:44;;;;;;;1.10;0.90;;;11.90;99.90;;;;;;5031316;28;20041;-86
2023/05/10 03:55:10;;;;;;;1.45;1.33;;;12.40;99.90;;;;;;5031877;28;20092;-85
2023/05/10 03:57:36;;;;;;;0.30;0.30;;;11.90;99.90;;;;;;5032024;28;20041;-86
2023/05/10 04:00:02;;;;;;;2.10;1.55;;;11.90;99.90;;;;;;5042836;28;20172;-86
2023/05/10 04:02:29;;;;;;;1.33;1.08;;;11.90;99.90;;;;;;5031779;28;20083;-86
2023/05/10 04:04:55;;;;;;;0.70;0.65;;;11.90;99.90;;;;;;5031748;28;20076;-86
2023/05/10 04:07:21;;;;;;;2.35;1.27;;;11.90;99.90;;;;;;5031958;28;20056;-85
2023/05/10 04:09:47;;;;;;;2.78;0.80;;;11.90;99.90;;;;;;5032080;28;20158;-86
2023/05/10 04:12:12;;;;;;;2.30;1.35;;;11.90;99.90;;;;;;5029332;28;20095;-85
2023/05/10 04:14:38;;;;;;;1.20;0.40;;;12.50;99.90;;;;;;5030987;28;20380;-85
2023/05/10 04:17:04;;;;;;;0.55;0.55;;;11.90;99.90;;;;;;5031681;28;20037;-85
2023/05/10 04:19:30;;;;;;;1.40;0.63;;;11.90;99.90;;;;;;5048997;28;20201;-85
2023/05/10 04:21:56;;;;;;;1.17;0.57;;;11.90;99.90;;;;;;5052527;28;20045;-86
2023/05/10 04:24:21;;;;;;;0.00;0.00;;;12.50;99.90;;;;;;5055272;28;20833;-86
2023/05/10 04:26:47;;;;;;;1.48;0.90;;;11.90;99.90;;;;;;5055320;28;20637;-85
2023/05/10 04:29:13;;;;;;;1.45;1.08;;;11.90;99.90;;;;;;5054466;28;20110;-86
2023/05/10 04:31:38;;;;;;;4.47;1.17;;;11.90;99.90;;;;;;5052826;28;20072;-86
2023/05/10 04:34:04;;;;;;;0.15;0.15;;;11.90;99.90;;;;;;5053733;28;20054;-86
2023/05/10 04:36:32;;;;;;;0.22;0.22;;;12.00;99.90;;;;;;5054673;28;20048;-86
2023/05/10 04:38:57;;;;;;;1.65;1.13;;;12.00;99.90;;;;;;5055441;28;20108;-87
2023/05/10 04:41:24;;;;;;;1.95;0.93;;;12.70;99.90;;;;;;5054286;28;20095;-86
2023/05/10 04:43:50;;;;;;;0.90;0.60;;;12.80;99.90;;;;;;5054537;28;20067;-86
2023/05/10 04:46:16;;;;;;;0.55;0.40;;;12.00;99.90;;;;;;5054915;28;20045;-85
2023/05/10 04:48:42;;;;;;;0.73;0.60;;;12.20;99.90;;;;;;5055259;28;20057;-85
2023/05/10 04:51:07;;;;;;;1.38;0.75;;;12.70;99.90;;;;;;5053858;28;20041;-85
2023/05/10 04:53:33;;;;;;;0.15;0.15;;;12.00;99.90;;;;;;5052715;28;20123;-86
2023/05/10 04:55:59;;;;;;;1.17;0.80;;;12.00;99.90;;;;;;5052449;28;20113;-86
2023/05/10 04:58:25;;;;;;;2.45;1.27;;;12.00;99.90;;;;;;5050922;28;20060;-86
2023/05/10 05:00:50;;;;;;;0.90;0.70;;;12.00;99.90;;;;;;5051662;28;20045;-85
2023/05/10 05:03:16;;;;;;;0.82;0.60;;;12.90;99.90;;;;;;5035148;28;20080;-85
2023/05/10 05:05:41;;;;;;;0.20;0.20;;;12.00;99.90;;;;;;5032456;28;20045;-85
2023/05/10 05:08:07;;;;;;;0.65;0.47;;;12.00;99.90;;;;;;5032896;28;20103;-85
2023/05/10 05:10:33;;;;;;;0.68;0.68;;;12.50;99.90;;;;;;5051747;28;20808;-86
2023/05/10 05:12:58;;;;;;;0.28;0.28;;;13.20;99.90;;;;;;5052498;28;20047;-85
2023/05/10 05:15:24;;;;;;;0.68;0.68;;;12.80;99.90;;;;;;5036010;28;20149;-86
2023/05/10 05:17:50;;;;;;;0.17;0.13;;;12.00;99.90;;;;;;5053647;28;20471;-86
2023/05/10 05:20:15;;;;;;;0.10;0.10;;;12.30;99.90;;;;;;5053496;28;20048;-85
2023/05/10 05:22:41;;;;;;;0.32;0.32;;;12.10;99.90;;;;;;5051801;28;20048;-86
2023/05/10 05:25:07;;;;;;;0.25;0.25;;;12.90;99.90;;;;;;5051447;28;20037;-85
2023/05/10 05:27:33;;;;;;;0.17;0.17;;;12.10;99.90;;;;;;5052672;28;20044;-85
2023/05/10 05:29:58;;;;;;;0.05;0.05;;;12.10;99.90;;;;;;5046363;28;20442;-84
2023/05/10 05:32:25;;;;;;;0.00;0.00;;;12.10;99.90;;;;;;5031994;28;20542;-85
2023/05/10 05:34:51;;;;;;;0.60;0.45;;;13.30;99.90;;;;;;5017276;28;20064;-85
2023/05/10 05:37:19;;;;;;;0.65;0.43;;;12.00;99.90;;;;;;5032471;28;20124;-84
2023/05/10 05:39:45;;;;;;;0.00;0.00;;;12.00;99.90;;;;;;5030963;28;20041;-85
2023/05/10 05:42:11;;;;;;;0.10;0.10;;;12.30;99.90;;;;;;5029812;28;20162;-85
2023/05/10 05:44:37;;;;;;;0.32;0.20;;;12.00;99.90;;;;;;5032588;28;20120;-85
2023/05/10 05:47:03;;;;;;;0.10;0.10;;;12.30;99.90;;;;;;5034184;28;20065;-85
2023/05/10 05:49:28;;;;;;;0.20;0.20;;;12.00;99.90;;;;;;5029794;28;20049;-85
2023/05/10 05:51:54;;;;;;;0.00;0.00;;;13.00;99.90;;;;;;5046408;28;20052;-85
2023/05/10 05:54:20;;;;;;;0.00;0.00;;;13.00;99.90;;;;;;5050657;28;20704;-86
2023/05/10 05:56:46;;;;;;;0.43;0.17;;;12.10;99.90;;;;;;5055022;28;20044;-85
2023/05/10 05:59:11;;;;;;;0.00;0.00;;;12.10;99.90;;;;;;5051905;28;20073;-84
2023/05/10 06:01:37;;;;;;;0.10;0.10;;;12.10;99.90;;;;;;5040799;28;20068;-85
2023/05/10 06:04:03;;;;;;;0.10;0.10;;;12.00;99.90;;;;;;5036967;28;20068;-85
2023/05/10 06:06:32;;;;;;;0.10;0.10;;;12.10;99.90;;;;;;5048391;28;20041;-86
2023/05/10 06:08:57;;;;;;;0.40;0.28;;;13.50;99.90;;;;;;5056913;28;20037;-86
2023/05/10 06:11:23;;;;;;;0.00;0.00;;;12.10;99.90;;;;;;5056597;28;20056;-85
2023/05/10 06:13:49;;;;;;;0.25;0.25;;;12.10;99.90;;;;;;5043946;28;20056;-85
2023/05/10 06:16:15;;;;;;;0.00;0.00;;;12.10;99.90;;;;;;5042277;28;20049;-86
2023/05/10 06:18:40;;;;;;;0.00;0.00;;;12.00;99.90;;;;;;5036340;28;20081;-85
2023/05/10 06:21:06;;;;;;;0.00;0.00;;;12.10;99.90;;;;;;5024289;28;20131;-85
2023/05/10 06:23:32;;;;;;;0.00;0.00;;;12.00;99.90;;;;;;5034690;28;20040;-86
2023/05/10 06:25:58;;;;;;;0.00;0.00;;;12.10;99.90;;;;;;5037571;28;20649;-86
2023/05/10 06:28:23;;;;;;;0.20;0.10;;;12.30;99.90;;;;;;5040825;28;20044;-86
2023/05/10 06:30:49;;;;;;;0.08;0.08;;;12.00;99.90;;;;;;5041669;28;20041;-86
2023/05/10 06:33:15;;;;;;;0.17;0.10;;;12.10;99.90;;;;;;5040505;28;20366;-85
2023/05/10 06:35:41;;;;;;;0.00;0.00;;;12.20;99.90;;;;;;5039536;28;20060;-86
2023/05/10 06:38:07;;;;;;;0.00;0.00;;;12.10;99.90;;;;;;5041709;28;20045;-86
2023/05/10 06:40:32;;;;;;;0.00;0.00;;;13.10;99.90;;;;;;5044425;28;20657;-84
2023/05/10 06:42:58;;;;;;;0.00;0.00;;;12.10;99.90;;;;;;5037883;28;20026;-84
2023/05/10 06:45:24;;;;;;;0.00;0.00;;;12.10;99.90;;;;;;5031956;28;20041;-84
2023/05/10 06:47:49;;;;;;;0.25;0.15;;;12.10;99.90;;;;;;5013942;28;20077;-86
2023/05/10 06:50:15;;;;;;;0.00;0.00;;;12.10;99.90;;;;;;5030563;28;20108;-85
2023/05/10 06:52:41;;;;;;;0.00;0.00;;;13.30;99.90;;;;;;5021764;28;20516;-84
2023/05/10 06:55:08;;;;;;;0.00;0.00;;;12.20;99.90;;;;;;5022744;28;20053;-86
2023/05/10 06:57:34;;;;;;;0.00;0.00;;;12.20;99.90;;;;;;5035018;28;20060;-86
2023/05/10 07:00:00;;;;;;;0.00;0.00;;;12.10;99.90;;;;;;5034733;28;20590;-85
2023/05/10 07:02:25;;;;;;;0.08;0.08;;;12.10;99.90;;;;;;5025188;28;20045;-85
2023/05/10 07:04:52;;;;;;;0.10;0.05;;;12.10;99.90;;;;;;5024920;28;20037;-85
2023/05/10 07:07:18;;;;;;;0.00;0.00;;;12.10;99.90;;;;;;5025699;28;20124;-85
2023/05/10 07:09:44;;;;;;;0.00;0.00;;;12.10;99.90;;;;;;5030306;28;20041;-85
2023/05/10 07:12:10;;;;;;;0.00;0.00;;;12.10;99.90;;;;;;5024899;28;20416;-85
2023/05/10 07:14:36;;;;;;;0.20;0.17;;;12.90;99.90;;;;;;5024295;28;20056;-85
2023/05/10 07:17:01;;;;;;;0.00;0.00;;;12.10;99.90;;;;;;5025136;28;20407;-85
2023/05/10 07:19:29;;;;;;;0.00;0.00;;;12.10;99.90;;;;;;5023111;28;20480;-85
2023/05/10 07:21:54;;;;;;;0.00;0.00;;;12.10;99.90;;;;;;5024950;28;20045;-85
2023/05/10 07:24:20;;;;;;;0.00;0.00;;;12.30;99.90;;;;;;5038266;28;20473;-84
2023/05/10 07:26:46;;;;;;;0.00;0.00;;;12.30;99.90;;;;;;5043545;28;21041;-85
2023/05/10 07:29:12;;;;;;;0.35;0.32;;;12.40;99.90;;;;;;5043121;28;20041;-85
2023/05/10 07:31:38;;;;;;;0.00;0.00;;;12.30;99.90;;;;;;5044384;28;20053;-85
2023/05/10 07:34:03;;;;;;;0.00;0.00;;;12.40;99.90;;;;;;5029631;28;20519;-86
2023/05/10 07:36:29;;;;;;;0.13;0.10;;;13.10;99.90;;;;;;5040016;28;20504;-86
2023/05/10 07:38:56;;;;;;;0.00;0.00;;;12.50;99.90;;;;;;5028020;28;20049;-85
2023/05/10 07:41:22;;;;;;;0.00;0.00;;;12.60;99.90;;;;;;5024802;28;20041;-85
2023/05/10 07:43:47;;;;;;;0.00;0.00;;;12.70;99.90;;;;;;5023940;28;20092;-85
2023/05/10 07:46:13;;;;;;;0.00;0.00;;;13.50;99.90;;;;;;5040213;28;20080;-84
2023/05/10 07:48:39;;;;;;;0.00;0.00;;;12.90;99.90;;;;;;5034204;28;20680;-85
2023/05/10 07:51:06;;;;;;;0.00;0.00;;;13.90;99.90;;;;;;5024358;28;20499;-85
2023/05/10 07:53:31;;;;;;;0.00;0.00;;;13.10;99.90;;;;;;5026770;28;20088;-85
2023/05/10 07:55:58;;;;;;;0.00;0.00;;;13.00;99.90;;;;;;5024981;28;20092;-83
2023/05/10 07:58:24;;;;;;;0.00;0.00;;;13.00;99.90;;;;;;5035672;28;20073;-85
2023/05/10 08:00:50;;;;;;;0.00;0.00;;;12.80;99.90;;;;;;5044847;28;20495;-84
2023/05/10 08:03:16;;;;;;;0.10;0.10;;;12.70;99.90;;;;;;5046802;28;20107;-84
2023/05/10 08:05:42;;;;;;;0.10;0.10;;;12.70;99.90;;;;;;5046661;28;20091;-84
2023/05/10 08:08:07;;;;;;;0.03;0.03;;;13.60;99.90;;;;;;5036524;28;20124;-85
2023/05/10 08:10:33;;;;;;;0.00;0.00;;;12.70;99.90;;;;;;5039978;28;20049;-84
2023/05/10 08:12:58;;;;;;;0.10;0.10;;;12.70;99.90;;;;;;5041571;28;20041;-84
2023/05/10 08:15:25;;;;;;;0.13;0.13;;;12.60;99.90;;;;;;5046934;28;20048;-84
2023/05/10 08:17:54;;;;;;;0.13;0.10;;;13.80;99.90;;;;;;5044923;28;20123;-84
2023/05/10 08:20:20;;;;;;;0.73;0.40;;;13.10;99.90;;;;;;5026384;28;20061;-84
2023/05/10 08:22:46;;;;;;;0.10;0.10;;;12.60;99.90;;;;;;5047327;28;20049;-83
2023/05/10 08:25:12;;;;;;;0.10;0.10;;;12.60;99.90;;;;;;5047135;28;20052;-84
2023/05/10 08:27:40;;;;;;;0.20;0.20;;;12.70;99.90;;;;;;5039766;28;20040;-86
2023/05/10 08:30:07;;;;;;;0.57;0.08;;;12.80;99.90;;;;;;5034918;28;20053;-84
2023/05/10 08:32:32;;;;;;;0.00;0.00;;;12.70;99.90;;;;;;5039015;28;20417;-84
2023/05/10 08:34:58;;;;;;;0.10;0.10;;;12.70;99.90;;;;;;5048100;28;20087;-84
2023/05/10 08:37:24;;;;;;;0.00;0.00;;;12.70;99.90;;;;;;5038109;28;20506;-84
2023/05/10 08:39:49;;;;;;;0.20;0.20;;;12.70;99.90;;;;;;5025623;28;20077;-85
2023/05/10 08:42:22;;;;;;;0.03;0.03;;;13.60;99.90;;;;;;5025875;28;20085;-85
2023/05/10 08:49:04;;;;;;;0.50;0.40;;;13.50;99.90;;;;;;4915745;29;20629;-86
2023/05/10 08:51:43;;;;;;;0.00;0.00;;;12.70;99.90;;;;;;4819147;29;20459;-86
2023/05/10 08:54:10;;;;;;;0.00;0.00;;;12.70;99.90;;;;;;5006939;28;20081;-84
2023/05/10 08:56:36;;;;;;;0.10;0.10;;;12.80;99.90;;;;;;5048105;28;20045;-84
2023/05/10 08:59:02;;;;;;;0.20;0.20;;;13.20;99.90;;;;;;5034235;28;20048;-84
2023/05/10 09:01:31;;;;;;;0.13;0.13;;;12.60;99.90;;;;;;5026320;28;20571;-83
2023/05/10 09:03:57;;;;;;;0.65;0.52;;;12.60;99.90;;;;;;5026717;28;20525;-84
2023/05/10 09:06:24;;;;;;;0.10;0.10;;;12.70;99.90;;;;;;5040705;28;20049;-83
2023/05/10 09:08:50;;;;;;;0.10;0.10;;;12.80;99.90;;;;;;5049262;28;20135;-83
2023/05/10 09:11:16;;;;;;;0.20;0.20;;;12.80;99.90;;;;;;5049504;28;20144;-84
2023/05/10 09:13:43;;;;;;;0.60;0.40;;;12.90;99.90;;;;;;5047096;28;20052;-84
2023/05/10 09:16:09;;;;;;;0.00;0.00;;;12.90;99.90;;;;;;5045145;28;20057;-84
2023/05/10 09:18:34;;;;;;;0.00;0.00;;;13.30;99.90;;;;;;5033653;28;20042;-84
2023/05/10 09:21:00;;;;;;;0.00;0.00;;;12.90;99.90;;;;;;5046312;28;20048;-84
2023/05/10 09:23:31;;;;;;;0.63;0.63;;;13.10;99.90;;;;;;5030434;28;20064;-84
2023/05/10 09:26:07;;;;;;;1.45;0.43;;;14.40;99.90;;;;;;5031198;28;20168;-83
2023/05/10 09:28:59;;;;;;;0.38;0.38;;;13.40;99.90;;;;;;5039043;28;20299;-83
2023/05/10 09:31:54;;;;;;;0.10;0.10;;;13.40;99.90;;;;;;5058336;28;20045;-83
2023/05/10 09:34:28;;;;;;;0.55;0.50;;;13.80;99.90;;;;;;5057048;28;20609;-83
2023/05/10 09:36:55;;;;;;;0.05;0.05;;;13.50;99.90;;;;;;5056341;28;20037;-83
2023/05/10 09:39:20;;;;;;;0.32;0.20;;;13.70;99.90;;;;;;5047900;28;20048;-84
2023/05/10 09:41:46;;;;;;;0.17;0.17;;;13.50;99.90;;;;;;5036534;28;20049;-83
2023/05/10 09:44:18;;;;;;;0.32;0.20;;;13.50;99.90;;;;;;5055782;28;20160;-83
2023/05/10 09:46:49;;;;;;;0.65;0.30;;;13.90;99.90;;;;;;5048644;28;20041;-84
2023/05/10 09:49:15;;;;;;;0.00;0.00;;;13.50;99.90;;;;;;5035499;28;20469;-84
2023/05/10 09:51:40;;;;;;;0.20;0.20;;;13.70;99.90;;;;;;5050228;28;20045;-84
2023/05/10 09:54:16;;;;;;;0.25;0.17;;;14.80;99.90;;;;;;5051055;28;20080;-84
2023/05/10 09:56:42;;;;;;;0.75;0.47;;;13.90;99.90;;;;;;5032072;28;20649;-84
2023/05/10 09:59:11;;;;;;;0.00;0.00;;;14.40;99.90;;;;;;5037737;28;20079;-84
2023/05/10 10:01:37;;;;;;;0.38;0.35;;;13.80;99.90;;;;;;5050998;28;20511;-84
2023/05/10 10:04:05;;;;;;;0.25;0.25;;;13.70;99.90;;;;;;5052729;28;20067;-84
2023/05/10 10:06:39;;;;;;;0.52;0.52;;;13.90;99.90;;;;;;5050868;28;20570;-85
2023/05/10 10:09:06;;;;;;;1.20;0.73;;;14.30;99.90;;;;;;5033505;28;20044;-83
2023/05/10 10:11:35;;;;;;;0.10;0.10;;;14.80;99.90;;;;;;5034875;28;20030;-83
2023/05/10 10:14:00;;;;;;;0.45;0.38;;;14.60;99.90;;;;;;5033724;28;20041;-84
2023/05/10 10:16:31;;;;;;;0.70;0.40;;;15.60;99.90;;;;;;5031952;28;20389;-83
2023/05/10 10:18:57;;;;;;;0.17;0.13;;;14.80;99.90;;;;;;5047717;28;20396;-83
2023/05/10 10:21:23;;;;;;;0.10;0.10;;;14.80;99.90;;;;;;5050361;28;20526;-83
2023/05/10 10:23:48;;;;;;;0.55;0.52;;;15.00;99.90;;;;;;5052049;28;20057;-83
2023/05/10 10:26:17;;;;;;;0.13;0.13;;;15.40;99.90;;;;;;5052828;28;20052;-83
2023/05/10 10:28:57;;;;;;;0.00;0.00;;;15.60;99.90;;;;;;5052664;28;20045;-84
2023/05/10 10:31:37;;;;;;;0.63;0.38;;;15.80;99.90;;;;;;5055560;28;20076;-83
2023/05/10 10:34:17;;;;;;;0.43;0.35;;;15.90;99.90;;;;;;5055510;28;20036;-83
2023/05/10 10:36:45;;;;;;;0.30;0.30;;;15.30;99.90;;;;;;5054640;28;20048;-84
2023/05/10 10:39:12;;;;;;;0.55;0.10;;;15.20;99.90;;;;;;5040809;28;20357;-83
2023/05/10 10:41:48;;;;;;;0.43;0.30;;;15.00;99.90;;;;;;5034798;28;20045;-84
2023/05/10 10:44:33;;;;;;;0.80;0.63;;;15.20;99.90;;;;;;5035338;28;20680;-84
2023/05/10 10:47:08;;;;;;;0.17;0.17;;;15.30;99.90;;;;;;5033857;28;20053;-84
2023/05/10 10:49:40;;;;;;;1.52;0.63;;;15.30;99.90;;;;;;5027364;28;20107;-85
2023/05/10 10:52:29;;;;;;;0.20;0.20;;;15.50;99.90;;;;;;5026839;28;20451;-84
2023/05/10 10:55:04;;;;;;;0.22;0.22;;;16.80;99.90;;;;;;5034829;28;20061;-83
2023/05/10 10:57:51;;;;;;;0.00;0.00;;;15.20;99.90;;;;;;5048902;28;20045;-84
2023/05/10 11:00:30;;;;;;;0.03;0.03;;;14.90;99.90;;;;;;5047199;28;20049;-84
2023/05/10 11:03:18;;;;;;;0.38;0.30;;;14.50;99.90;;;;;;5051277;28;20496;-84
2023/05/10 11:05:48;;;;;;;0.20;0.20;;;14.30;99.90;;;;;;5045196;28;20056;-84
2023/05/10 11:08:26;;;;;;;1.40;1.10;;;14.20;99.90;;;;;;5032398;28;20048;-84
2023/05/10 11:11:03;;;;;;;0.15;0.10;;;14.30;99.90;;;;;;5049212;28;20049;-84
2023/05/10 11:13:39;;;;;;;0.13;0.13;;;14.30;99.90;;;;;;5047749;28;20550;-84
2023/05/10 11:16:16;;;;;;;0.43;0.35;;;14.60;99.90;;;;;;5047378;28;20094;-84
2023/05/10 11:18:52;;;;;;;5.88;1.55;;;14.80;99.90;;;;;;5045801;28;20049;-85
2023/05/10 11:21:18;;;;;;;1.33;0.60;;;15.00;99.90;;;;;;5030213;28;20045;-85
2023/05/10 11:23:48;;;;;;;0.00;0.00;;;15.10;99.90;;;;;;5030746;28;20049;-84
2023/05/10 11:26:14;;;;;;;1.65;0.60;;;15.60;99.90;;;;;;5030179;28;20076;-84
2023/05/10 11:28:47;;;;;;;0.30;0.30;;;15.20;99.90;;;;;;5031492;28;20093;-85
2023/05/10 11:31:17;;;;;;;1.08;0.35;;;15.30;99.90;;;;;;5048583;28;20040;-85
2023/05/10 11:33:49;;;;;;;0.10;0.10;;;15.30;99.90;;;;;;5047943;28;20049;-86
2023/05/10 11:36:20;;;;;;;0.20;0.20;;;15.30;99.90;;;;;;5047537;28;20515;-85
2023/05/10 11:38:46;;;;;;;0.17;0.17;;;15.30;1.00;;;;;;5048209;28;20055;-83
2023/05/10 11:41:12;;;;;;;0.38;0.28;;;15.50;99.90;;;;;;5047260;28;20037;-84
2023/05/10 11:43:42;;;;;;;0.50;0.50;;;15.60;99.90;;;;;;5046190;28;20131;-85
2023/05/10 11:46:12;;;;;;;1.70;0.17;;;15.60;99.90;;;;;;5045776;28;20487;-85
2023/05/10 11:48:41;;;;;;;0.93;0.85;;;15.60;99.90;;;;;;5036658;28;20068;-84
2023/05/10 11:51:08;;;;;;;0.47;0.40;;;15.50;1.00;;;;;;5030353;28;20104;-85
2023/05/10 11:53:33;;;;;;;1.48;0.52;;;15.40;78.60;;;;;;5028565;28;20049;-85
2023/05/10 11:56:06;;;;;;;0.20;0.20;;;15.20;62.40;;;;;;5031593;28;20184;-85
2023/05/10 11:58:33;;;;;;;0.03;0.03;;;15.10;99.90;;;;;;5030297;28;20080;-85
2023/05/10 12:01:02;;;;;;;0.60;0.40;;;15.60;99.90;;;;;;5029767;28;20488;-85
2023/05/10 12:03:28;;;;;;;0.10;0.10;;;15.60;99.90;;;;;;5029778;28;20103;-85
2023/05/10 12:05:58;;;;;;;2.72;0.95;;;15.30;99.90;;;;;;5041024;28;20052;-85
2023/05/10 12:08:25;;;;;;;1.00;0.65;;;15.50;99.90;;;;;;5035137;28;20551;-84
2023/05/10 12:10:52;;;;;;;3.22;0.73;;;16.60;99.90;;;;;;5030935;28;20807;-84
2023/05/10 12:13:20;;;;;;;0.10;0.10;;;15.90;97.90;;;;;;5031643;28;20060;-85
2023/05/10 12:15:46;;;;;;;0.30;0.30;;;16.90;99.90;;;;;;5039364;28;20057;-84
2023/05/10 12:18:13;;;;;;;0.10;0.10;;;16.30;99.90;;;;;;5052300;28;20048;-84
2023/05/10 12:20:40;;;;;;;0.00;0.00;;;17.10;77.50;;;;;;5035697;28;20049;-84
2023/05/10 12:23:07;;;;;;;0.52;0.47;;;16.40;86.50;;;;;;5031388;28;20049;-85
2023/05/10 12:25:34;;;;;;;0.08;0.05;;;16.50;99.90;;;;;;5038825;28;20064;-84
2023/05/10 12:28:03;;;;;;;0.22;0.15;;;16.30;98.70;;;;;;5051362;28;20036;-84
2023/05/10 12:30:31;;;;;;;0.88;0.52;;;16.50;1.00;;;;;;5052068;28;20513;-84
2023/05/10 12:33:14;;;;;;;0.47;0.25;;;16.40;99.90;;;;;;5046546;28;20223;-84
2023/05/10 12:35:51;;;;;;;0.00;0.00;;;16.10;1.00;;;;;;5044324;28;20041;-84
2023/05/10 12:38:37;;;;;;;0.40;0.40;;;16.00;99.90;;;;;;5026556;28;20447;-84
2023/05/10 12:41:06;;;;;;;0.35;0.35;;;15.80;44.70;;;;;;5028541;28;20041;-84
2023/05/10 12:43:34;;;;;;;0.73;0.43;;;15.70;99.90;;;;;;5027265;28;20050;-85
2023/05/10 12:46:05;;;;;;;0.25;0.25;;;15.40;99.90;;;;;;5029959;28;20049;-84
2023/05/10 12:48:31;;;;;;;1.08;0.43;;;15.40;99.90;;;;;;5027793;28;20068;-85
2023/05/10 12:50:57;;;;;;;0.57;0.43;;;15.50;99.90;;;;;;5025884;28;20038;-84
2023/05/10 12:53:22;;;;;;;0.22;0.22;;;15.80;99.90;;;;;;5027956;28;20037;-85
2023/05/10 12:55:48;;;;;;;0.15;0.15;;;16.20;1.00;;;;;;5044962;28;20106;-84
2023/05/10 12:58:14;;;;;;;4.30;1.00;;;16.50;99.90;;;;;;5036368;28;20575;-85
2023/05/10 13:00:39;;;;;;;0.15;0.10;;;16.60;1.00;;;;;;5027606;28;20045;-84